LEAS Airport Information

Runway Information
Runway 11 Length 7218 ft width 148 ft
Elevation 399 ft Threshold 0 ft Heading 109
Runway 29 Length 7218 ft Width 148 ft
Elevation 399 ft Threshold 0 ft Heading 289
Airport Frequencies
Type APP Name APP Frequency 118.15 MHZ
Type GND Name GND Frequency 121.7 MHZ
Type TWR Name TWR Frequency 118.15 MHZ
Airport Navaids
Type NDB Name Asturias Frequency 325 KHZ
Type NDB Name Asturias Frequency 387 KHZ
Type VOR-DME Name Asturias Frequency 112400 KHZ
Airport Weather Information & NOTAM
ADDS - METARS form results

(0835 UTC 25 May 2020)
Data provider http://aviationweather.gov/metar/data/
 
METAR text: LEAS 250830Z AUTO 12004KT 030V170 CAVOK 19/14 Q1028
Conditions at: LEAS (ASTURIAS/AVILES , ES) observed 0830 UTC 25 May 2020
Temperature: 19.0°C (66°F)
Dewpoint: 14.0°C (57°F) [RH = 73%]
Pressure (altimeter): 30.35 inches Hg (1028.0 mb)
Winds: from the ESE (120 degrees) at 5 MPH (4 knots; 2.1 m/s)
Visibility: 6 or more miles (10+ km)
Ceiling: ceiling and visibility are OK
Clouds: unknown
Weather: no significant weather observed at this time

METAR text: LEAS 250800Z AUTO 11007KT 070V160 CAVOK 18/14 Q1028
Conditions at: LEAS (ASTURIAS/AVILES , ES) observed 0800 UTC 25 May 2020
Temperature: 18.0°C (64°F)
Dewpoint: 14.0°C (57°F) [RH = 77%]
Pressure (altimeter): 30.35 inches Hg (1028.0 mb)
Winds: from the ESE (110 degrees) at 8 MPH (7 knots; 3.6 m/s)
Visibility: 6 or more miles (10+ km)
Ceiling: ceiling and visibility are OK
Clouds: unknown
Weather: no significant weather observed at this time

Forecast for: LEAS (ASTURIAS/AVILES , ES)
Text: TAF LEAS 250800Z 2509/2609 11007KT 9999 FEW020 TX20/2514Z TN12/2605Z
Forecast period: 0900 UTC 25 May 2020 to 0900 UTC 26 May 2020
Forecast type: FROM: standard forecast or significant change
Winds: from the ESE (110 degrees) at 8 MPH (7 knots; 3.6 m/s)
Visibility: 6 or more miles 10+ km)
Ceiling: at least 12,000 feet AGL
Clouds: few clouds at 2000 feet AGL
Weather: no significant weather forecast for this period
Text: TEMPO 2512/2519 05011KT
Forecast period: 1200 to 1900 UTC 25 May 2020
Forecast type: TEMPORARY: The following changes expected for less than half the time period
Winds: from the NE (50 degrees) at 13 MPH (11 knots; 5.7 m/s)
Visibility: missing
Ceiling: unknown
Clouds: missing
Weather: no significant weather forecast for this period